createdAt,value
2023-06-23T00:01:36.689Z,20.10
2023-06-23T00:04:14.529Z,20.04
2023-06-23T00:06:52.111Z,20.01
2023-06-23T00:09:30.103Z,20.00
2023-06-23T00:12:09.280Z,19.99
2023-06-23T00:14:46.756Z,19.99
2023-06-23T00:17:25.196Z,19.99
2023-06-23T00:20:03.381Z,19.99
2023-06-23T00:22:41.695Z,19.97
2023-06-23T00:25:19.907Z,19.99
2023-06-23T00:27:57.407Z,19.99
2023-06-23T00:30:27.963Z,19.95
2023-06-23T00:33:04.695Z,19.95
2023-06-23T00:35:42.148Z,19.97
2023-06-23T00:38:21.545Z,20.02
2023-06-23T00:40:52.287Z,19.98
2023-06-23T00:43:32.230Z,20.03
2023-06-23T00:46:22.736Z,20.02
2023-06-23T00:49:01.898Z,19.97
2023-06-23T00:51:39.333Z,19.93
2023-06-23T00:54:17.012Z,19.90
2023-06-23T00:56:54.819Z,19.89
2023-06-23T00:59:33.323Z,19.83
2023-06-23T01:02:11.844Z,19.88
2023-06-23T01:04:49.731Z,19.85
2023-06-23T01:08:05.373Z,19.83
2023-06-23T01:10:46.097Z,19.85
2023-06-23T01:13:45.942Z,19.86
2023-06-23T01:16:46.069Z,19.82
2023-06-23T01:20:13.128Z,19.78
2023-06-23T01:23:15.711Z,19.72
2023-06-23T01:26:35.390Z,19.71
2023-06-23T01:29:13.032Z,19.65
2023-06-23T01:32:09.638Z,19.61
2023-06-23T01:34:53.868Z,19.60
2023-06-23T01:37:39.253Z,19.60
2023-06-23T01:40:21.499Z,19.61
2023-06-23T01:43:08.563Z,19.59
2023-06-23T01:45:45.751Z,19.56
2023-06-23T01:48:24.877Z,19.45
2023-06-23T01:51:03.887Z,19.48
2023-06-23T01:53:42.556Z,19.47
2023-06-23T01:56:21.611Z,19.47
2023-06-23T01:59:03.662Z,19.47
2023-06-23T02:01:44.213Z,19.48
2023-06-23T02:04:23.396Z,19.44
2023-06-23T02:07:01.640Z,19.42
2023-06-23T02:09:43.034Z,19.42
2023-06-23T02:12:22.098Z,19.38
2023-06-23T02:14:59.259Z,19.38
2023-06-23T02:17:30.765Z,19.37
2023-06-23T02:20:19.192Z,19.34
2023-06-23T02:22:58.138Z,19.33
2023-06-23T02:25:36.792Z,19.33
2023-06-23T02:28:15.465Z,19.33
2023-06-23T02:30:54.224Z,19.33
2023-06-23T02:33:28.150Z,19.36
2023-06-23T02:36:07.769Z,19.37
2023-06-23T02:38:46.756Z,19.31
2023-06-23T02:41:25.298Z,19.38
2023-06-23T02:44:08.140Z,19.44
2023-06-23T02:46:48.512Z,19.51
2023-06-23T02:49:30.016Z,19.59
2023-06-23T02:52:11.829Z,19.66
2023-06-23T02:54:53.973Z,19.79
2023-06-23T02:57:34.321Z,19.87
2023-06-23T03:00:23.131Z,19.92
2023-06-23T03:03:07.728Z,19.99
2023-06-23T03:05:45.300Z,20.06
2023-06-23T03:08:22.694Z,20.09
2023-06-23T03:10:59.676Z,20.11
2023-06-23T03:13:36.524Z,20.10
2023-06-23T03:16:21.833Z,20.08
2023-06-23T03:19:25.427Z,20.04
2023-06-23T03:22:14.376Z,20.01
2023-06-23T03:24:57.822Z,20.08
2023-06-23T03:27:40.083Z,20.14
2023-06-23T03:30:27.282Z,20.20
2023-06-23T03:33:04.509Z,20.21
2023-06-23T03:35:46.305Z,20.32
2023-06-23T03:38:25.322Z,20.34
2023-06-23T03:41:07.546Z,20.33
2023-06-23T03:43:52.552Z,20.47
2023-06-23T03:46:41.379Z,20.63
2023-06-23T03:49:13.675Z,20.87
2023-06-23T03:51:51.809Z,21.04
2023-06-23T03:54:29.594Z,21.22
2023-06-23T03:57:09.749Z,21.41
2023-06-23T03:59:48.657Z,21.46
2023-06-23T04:02:28.644Z,21.49
2023-06-23T04:05:09.199Z,21.58
2023-06-23T04:07:51.658Z,21.64
2023-06-23T04:10:30.143Z,21.58
2023-06-23T04:13:09.913Z,21.60
2023-06-23T04:15:48.390Z,21.64
2023-06-23T04:18:26.552Z,21.70
2023-06-23T04:21:05.831Z,21.69
2023-06-23T04:23:45.709Z,21.55
2023-06-23T04:26:23.641Z,21.54
2023-06-23T04:29:03.456Z,21.47
2023-06-23T04:31:41.740Z,21.39
2023-06-23T04:34:18.475Z,21.35
2023-06-23T04:37:14.785Z,21.45
2023-06-23T04:40:00.007Z,21.82
2023-06-23T04:42:48.460Z,22.27
2023-06-23T04:45:29.973Z,22.68
2023-06-23T04:48:13.420Z,23.22
2023-06-23T04:50:52.896Z,23.82
2023-06-23T04:53:39.524Z,24.53
2023-06-23T04:56:19.515Z,25.19
2023-06-23T04:59:03.161Z,25.36
2023-06-23T05:01:39.696Z,25.43
2023-06-23T05:04:18.871Z,25.38
2023-06-23T05:06:57.261Z,25.55
2023-06-23T05:09:36.620Z,25.78
2023-06-23T05:12:17.700Z,26.03
2023-06-23T05:14:57.407Z,25.90
2023-06-23T05:17:38.128Z,25.81
2023-06-23T05:20:17.419Z,25.96
2023-06-23T05:22:57.223Z,26.08
2023-06-23T05:25:35.536Z,26.43
2023-06-23T05:28:14.407Z,26.85
2023-06-23T05:30:52.760Z,26.85
2023-06-23T05:33:32.672Z,26.54
2023-06-23T05:36:14.165Z,26.32
2023-06-23T05:38:53.631Z,26.19
2023-06-23T05:41:30.700Z,26.29
2023-06-23T05:44:08.913Z,26.41
2023-06-23T05:46:43.553Z,26.33
2023-06-23T05:49:21.295Z,26.28
2023-06-23T05:52:08.626Z,26.36
2023-06-23T05:54:55.466Z,26.63
2023-06-23T05:57:38.339Z,26.77
2023-06-23T06:00:19.082Z,27.07
2023-06-23T06:02:57.830Z,27.08
2023-06-23T06:05:36.036Z,27.05
2023-06-23T06:08:13.988Z,26.43
2023-06-23T06:10:49.391Z,26.07
2023-06-23T06:13:28.249Z,25.84
2023-06-23T06:16:01.048Z,25.73
2023-06-23T06:18:37.182Z,25.75
2023-06-23T06:21:12.804Z,25.73
2023-06-23T06:23:51.434Z,25.75
2023-06-23T06:26:29.417Z,25.66
2023-06-23T06:29:07.718Z,25.61
2023-06-23T06:31:46.659Z,25.56
2023-06-23T06:34:25.817Z,25.52
2023-06-23T06:37:04.362Z,25.44
2023-06-23T06:39:43.968Z,25.47
2023-06-23T06:42:20.841Z,25.54
2023-06-23T06:44:51.225Z,25.57
2023-06-23T06:47:31.032Z,25.63
2023-06-23T06:50:10.035Z,25.55
2023-06-23T06:52:48.756Z,25.48
2023-06-23T06:55:26.782Z,25.31
2023-06-23T06:57:57.993Z,25.18
2023-06-23T07:00:35.768Z,25.04
2023-06-23T07:03:17.439Z,24.87
2023-06-23T07:05:54.735Z,24.84
2023-06-23T07:08:32.057Z,24.89
2023-06-23T07:11:10.474Z,24.88
2023-06-23T07:13:42.230Z,24.90
2023-06-23T07:16:19.624Z,24.93
2023-06-23T07:18:57.257Z,24.81
2023-06-23T07:21:36.091Z,24.79
2023-06-23T07:24:12.733Z,24.67
2023-06-23T07:26:50.531Z,24.76
2023-06-23T07:29:28.230Z,24.71
2023-06-23T07:31:59.432Z,24.73
2023-06-23T07:34:36.977Z,24.85
2023-06-23T07:37:14.716Z,24.92
2023-06-23T07:39:51.865Z,24.92
2023-06-23T07:42:30.845Z,24.97
2023-06-23T07:45:09.356Z,25.06
2023-06-23T07:47:40.308Z,25.04
2023-06-23T07:50:17.517Z,24.99
2023-06-23T07:53:04.163Z,25.00
2023-06-23T07:55:42.653Z,24.87
2023-06-23T07:58:20.132Z,24.79
2023-06-23T08:00:57.314Z,24.85
2023-06-23T08:03:34.643Z,24.92
2023-06-23T08:06:12.477Z,24.92
2023-06-23T08:08:50.823Z,24.84
2023-06-23T08:11:23.461Z,24.81
2023-06-23T08:13:58.778Z,24.79
2023-06-23T08:16:36.326Z,24.67
2023-06-23T08:19:14.248Z,24.73
2023-06-23T08:21:51.556Z,24.68
2023-06-23T08:24:29.027Z,24.55
2023-06-23T08:27:08.210Z,24.49
2023-06-23T08:29:46.109Z,24.46
2023-06-23T08:32:23.806Z,24.46
2023-06-23T08:35:01.765Z,24.38
2023-06-23T08:37:39.346Z,24.28
2023-06-23T08:40:17.987Z,24.28
2023-06-23T08:42:55.912Z,24.24
2023-06-23T08:45:35.999Z,24.21
2023-06-23T08:48:14.203Z,24.05
2023-06-23T08:50:53.152Z,24.05
2023-06-23T08:53:25.821Z,23.94
2023-06-23T08:56:00.098Z,23.79
2023-06-23T08:58:37.836Z,23.51
2023-06-23T09:01:15.046Z,23.38
2023-06-23T09:03:52.777Z,23.34
2023-06-23T09:06:29.751Z,23.37
2023-06-23T09:09:07.053Z,23.30
2023-06-23T09:11:47.713Z,23.19
2023-06-23T09:14:31.811Z,23.07
2023-06-23T09:17:10.244Z,22.90
2023-06-23T09:19:50.922Z,22.75
2023-06-23T09:22:28.880Z,22.74
2023-06-23T09:25:05.700Z,22.62
2023-06-23T09:27:51.256Z,22.52
2023-06-23T09:30:37.223Z,22.39
2023-06-23T09:33:15.285Z,22.35
2023-06-23T09:35:57.516Z,22.36
2023-06-23T09:38:40.755Z,22.37
2023-06-23T09:41:20.743Z,22.29
2023-06-23T09:43:56.116Z,22.28
2023-06-23T09:46:37.822Z,22.29
2023-06-23T09:49:16.157Z,22.29
2023-06-23T09:51:53.306Z,22.37
2023-06-23T09:54:42.413Z,22.43
2023-06-23T09:57:21.426Z,22.50
2023-06-23T10:00:00.038Z,22.54
2023-06-23T10:02:42.092Z,22.52
2023-06-23T10:05:20.244Z,22.49
2023-06-23T10:08:13.952Z,22.48
2023-06-23T10:10:53.739Z,22.44
2023-06-23T10:13:24.405Z,22.49
2023-06-23T10:16:01.890Z,22.57
2023-06-23T10:18:39.297Z,22.64
2023-06-23T10:21:16.465Z,22.55
2023-06-23T10:23:54.006Z,22.47
2023-06-23T10:26:33.201Z,22.38
2023-06-23T10:29:21.203Z,22.33
2023-06-23T10:32:02.087Z,22.35
2023-06-23T10:34:40.840Z,22.39
2023-06-23T10:37:31.659Z,22.52
2023-06-23T10:40:25.971Z,22.66
2023-06-23T10:43:03.527Z,22.74
2023-06-23T10:45:43.074Z,22.80
2023-06-23T10:48:15.229Z,22.95
2023-06-23T10:50:49.064Z,23.03
2023-06-23T10:53:36.240Z,22.99
2023-06-23T10:56:10.376Z,23.08
2023-06-23T10:58:57.567Z,23.16
2023-06-23T11:01:31.944Z,23.28
2023-06-23T11:04:30.627Z,23.35
2023-06-23T11:07:15.508Z,23.35
2023-06-23T11:10:00.751Z,23.38
2023-06-23T11:12:45.106Z,23.40
2023-06-23T11:15:26.353Z,23.43
2023-06-23T11:18:07.151Z,23.51
2023-06-23T11:20:45.461Z,23.63
2023-06-23T11:23:23.088Z,23.75
2023-06-23T11:26:00.918Z,23.84
2023-06-23T11:28:44.263Z,23.85
2023-06-23T11:31:26.273Z,23.93
2023-06-23T11:34:04.588Z,24.10
2023-06-23T11:36:41.814Z,24.28
2023-06-23T11:39:20.415Z,24.51
2023-06-23T11:41:59.037Z,24.71
2023-06-23T11:44:38.445Z,24.88
2023-06-23T11:47:16.647Z,25.01
2023-06-23T11:49:54.637Z,25.30
2023-06-23T11:52:32.963Z,25.43
2023-06-23T11:55:13.461Z,25.54
2023-06-23T11:57:51.723Z,25.48
2023-06-23T12:00:29.931Z,25.82
2023-06-23T12:03:09.417Z,26.15
2023-06-23T12:05:46.508Z,26.28
2023-06-23T12:08:30.852Z,26.39
2023-06-23T12:11:10.121Z,26.41
2023-06-23T12:13:41.182Z,26.47
2023-06-23T12:16:18.616Z,26.55
2023-06-23T12:18:54.975Z,26.59
2023-06-23T12:21:28.144Z,26.66
2023-06-23T12:24:05.674Z,26.54
2023-06-23T12:26:45.859Z,26.52
2023-06-23T12:29:23.907Z,26.54
2023-06-23T12:32:05.861Z,26.70
2023-06-23T12:34:50.477Z,26.41
2023-06-23T12:37:27.310Z,26.38
2023-06-23T12:40:07.350Z,26.65
2023-06-23T12:42:46.882Z,26.69
2023-06-23T12:45:27.402Z,26.68
2023-06-23T12:47:58.911Z,26.55
2023-06-23T12:50:40.280Z,26.23
2023-06-23T12:53:19.374Z,26.41
2023-06-23T12:55:57.437Z,26.19
2023-06-23T12:58:36.538Z,26.09
2023-06-23T13:01:17.990Z,26.34
2023-06-23T13:03:56.893Z,26.64
2023-06-23T13:06:34.514Z,26.71
2023-06-23T13:09:12.367Z,26.75
2023-06-23T13:11:49.423Z,26.90
2023-06-23T13:14:27.518Z,26.94
2023-06-23T13:17:05.649Z,26.76
2023-06-23T13:19:43.624Z,26.76
2023-06-23T13:22:22.038Z,27.02
2023-06-23T13:24:52.688Z,27.18
2023-06-23T13:27:28.395Z,27.22
2023-06-23T13:30:07.237Z,27.20
2023-06-23T13:32:45.733Z,27.17
2023-06-23T13:35:25.471Z,27.02
2023-06-23T13:38:04.514Z,27.03
2023-06-23T13:40:42.913Z,27.08
2023-06-23T13:43:23.072Z,27.17
2023-06-23T13:45:55.794Z,27.41
2023-06-23T13:48:36.502Z,27.51
2023-06-23T13:51:15.504Z,27.68
2023-06-23T13:53:54.223Z,27.81
2023-06-23T13:56:32.417Z,27.86
2023-06-23T13:59:11.852Z,27.77
2023-06-23T14:01:52.890Z,27.60
2023-06-23T14:04:32.874Z,27.55
2023-06-23T14:07:12.421Z,27.49
2023-06-23T14:09:42.851Z,27.36
2023-06-23T14:12:13.434Z,27.30
2023-06-23T14:14:49.940Z,27.26
2023-06-23T14:17:28.584Z,27.11
2023-06-23T14:20:07.891Z,26.90
2023-06-23T14:22:38.354Z,26.84
2023-06-23T14:25:16.682Z,26.85
2023-06-23T14:27:54.139Z,26.85
2023-06-23T14:30:32.242Z,26.84
2023-06-23T14:33:12.032Z,26.91
2023-06-23T14:35:50.199Z,26.98
2023-06-23T14:38:28.868Z,27.08
2023-06-23T14:41:11.088Z,27.07
2023-06-23T14:43:52.705Z,27.16
2023-06-23T14:46:30.826Z,27.09
2023-06-23T14:49:09.978Z,26.90
2023-06-23T14:51:47.850Z,26.77
2023-06-23T14:54:26.829Z,26.66
2023-06-23T14:57:05.314Z,26.48
2023-06-23T14:59:36.778Z,26.41
2023-06-23T15:02:11.636Z,26.32
2023-06-23T15:04:50.516Z,26.32
2023-06-23T15:07:30.262Z,26.33
2023-06-23T15:10:09.402Z,26.35
2023-06-23T15:12:47.332Z,26.41
2023-06-23T15:15:26.456Z,26.37
2023-06-23T15:18:05.286Z,26.41
2023-06-23T15:20:44.152Z,26.51
2023-06-23T15:23:24.080Z,26.64
2023-06-23T15:26:02.796Z,26.71
2023-06-23T15:28:40.456Z,26.65
2023-06-23T15:31:20.821Z,26.55
2023-06-23T15:33:59.014Z,26.51
2023-06-23T15:36:38.151Z,26.43
2023-06-23T15:39:16.810Z,26.44
2023-06-23T15:41:52.189Z,26.43
2023-06-23T15:44:32.940Z,26.47
2023-06-23T15:47:13.228Z,26.56
2023-06-23T15:49:48.863Z,26.65
2023-06-23T15:52:27.377Z,26.65
2023-06-23T15:55:01.044Z,26.66
2023-06-23T15:57:33.079Z,26.62
2023-06-23T16:00:12.204Z,26.58
2023-06-23T16:02:50.262Z,26.56
2023-06-23T16:05:29.811Z,26.55
2023-06-23T16:08:09.972Z,26.51
2023-06-23T16:10:48.127Z,26.55
2023-06-23T16:13:27.194Z,26.49
2023-06-23T16:16:05.669Z,26.47
2023-06-23T16:18:44.000Z,26.53
2023-06-23T16:21:23.168Z,26.52
2023-06-23T16:24:04.213Z,26.55
2023-06-23T16:26:42.806Z,26.51
2023-06-23T16:29:22.007Z,26.38
2023-06-23T16:32:00.470Z,26.41
2023-06-23T16:34:37.089Z,26.49
2023-06-23T16:37:15.493Z,26.55
2023-06-23T16:39:54.171Z,26.62
2023-06-23T16:42:32.421Z,26.61
2023-06-23T16:45:11.965Z,26.55
2023-06-23T16:47:52.886Z,26.45
2023-06-23T16:50:23.254Z,26.46
2023-06-23T16:52:55.015Z,26.33
2023-06-23T16:55:33.822Z,26.27
2023-06-23T16:58:13.397Z,26.27
2023-06-23T17:00:52.065Z,26.27
2023-06-23T17:03:31.088Z,26.30
2023-06-23T17:06:10.571Z,26.27
2023-06-23T17:08:49.613Z,26.29
2023-06-23T17:11:29.349Z,26.27
2023-06-23T17:14:08.883Z,26.29
2023-06-23T17:16:48.778Z,26.25
2023-06-23T17:19:27.684Z,26.17
2023-06-23T17:22:08.076Z,26.07
2023-06-23T17:24:49.365Z,25.93
2023-06-23T17:27:30.291Z,25.85
2023-06-23T17:30:11.570Z,25.77
2023-06-23T17:32:51.000Z,25.65
2023-06-23T17:35:29.810Z,25.58
2023-06-23T17:38:10.467Z,25.52
2023-06-23T17:40:49.103Z,25.42
2023-06-23T17:43:28.371Z,25.38
2023-06-23T17:46:08.983Z,25.33
2023-06-23T17:48:48.206Z,25.33
2023-06-23T17:51:27.256Z,25.26
2023-06-23T17:54:06.300Z,25.13
2023-06-23T17:56:37.059Z,25.07
2023-06-23T17:59:16.328Z,25.02
2023-06-23T18:01:46.757Z,25.00
2023-06-23T18:04:17.912Z,24.96
2023-06-23T18:06:56.226Z,24.94
2023-06-23T18:09:35.118Z,24.98
2023-06-23T18:12:13.817Z,24.95
2023-06-23T18:14:52.512Z,24.72
2023-06-23T18:17:31.000Z,24.32
2023-06-23T18:20:12.275Z,24.10
2023-06-23T18:22:51.020Z,23.91
2023-06-23T18:25:29.743Z,23.77
2023-06-23T18:28:09.408Z,23.58
2023-06-23T18:30:48.210Z,23.58
2023-06-23T18:33:27.065Z,23.47
2023-06-23T18:36:06.408Z,23.40
2023-06-23T18:38:46.770Z,23.41
2023-06-23T18:41:23.212Z,23.32
2023-06-23T18:44:01.992Z,23.22
2023-06-23T18:46:41.756Z,23.13
2023-06-23T18:49:20.121Z,23.08
2023-06-23T18:51:58.160Z,22.98
2023-06-23T18:54:37.989Z,22.93
2023-06-23T18:57:16.365Z,22.89
2023-06-23T18:59:55.679Z,22.87
2023-06-23T19:02:34.325Z,22.74
2023-06-23T19:05:11.021Z,22.65
2023-06-23T19:07:41.428Z,22.61
2023-06-23T19:10:18.837Z,22.57
2023-06-23T19:12:58.629Z,22.42
2023-06-23T19:15:37.226Z,22.33
2023-06-23T19:18:15.888Z,22.28
2023-06-23T19:20:54.029Z,22.21
2023-06-23T19:23:32.724Z,22.20
2023-06-23T19:26:12.205Z,22.15
2023-06-23T19:28:48.203Z,22.12
2023-06-23T19:31:28.819Z,22.06
2023-06-23T19:34:08.286Z,21.97
2023-06-23T19:36:47.149Z,21.91
2023-06-23T19:39:27.008Z,21.85
2023-06-23T19:42:06.211Z,21.73
2023-06-23T19:44:44.451Z,21.67
2023-06-23T19:47:23.091Z,21.61
2023-06-23T19:50:02.845Z,21.53
2023-06-23T19:52:37.378Z,21.37
2023-06-23T19:55:15.868Z,21.29
2023-06-23T19:57:50.158Z,21.16
2023-06-23T20:00:21.196Z,21.08
2023-06-23T20:03:00.062Z,21.05
2023-06-23T20:05:39.712Z,21.00
2023-06-23T20:08:19.289Z,20.94
2023-06-23T20:10:58.783Z,20.88
2023-06-23T20:13:38.079Z,20.80
2023-06-23T20:16:16.799Z,20.72
2023-06-23T20:18:55.447Z,20.70
2023-06-23T20:21:35.824Z,20.66
2023-06-23T20:24:15.199Z,20.63
2023-06-23T20:26:54.534Z,20.54
2023-06-23T20:29:33.617Z,20.49
2023-06-23T20:32:14.824Z,20.47
2023-06-23T20:34:53.225Z,20.45
2023-06-23T20:37:33.015Z,20.41
2023-06-23T20:40:14.907Z,20.45
2023-06-23T20:42:53.512Z,20.51
2023-06-23T20:45:35.286Z,20.54
2023-06-23T20:48:21.165Z,20.59
2023-06-23T20:51:00.225Z,20.59
2023-06-23T20:53:40.368Z,20.58
2023-06-23T20:56:19.981Z,20.57
2023-06-23T20:58:59.290Z,20.53
2023-06-23T21:01:38.502Z,20.56
2023-06-23T21:04:17.648Z,20.50
2023-06-23T21:06:57.379Z,20.51
2023-06-23T21:09:35.606Z,20.54
2023-06-23T21:12:15.084Z,20.50
2023-06-23T21:15:04.716Z,20.47
2023-06-23T21:17:44.838Z,20.47
2023-06-23T21:20:27.379Z,20.41
2023-06-23T21:23:04.609Z,20.42
2023-06-23T21:25:42.819Z,20.45
2023-06-23T21:28:21.896Z,20.44
2023-06-23T21:31:01.872Z,20.50
2023-06-23T21:33:40.843Z,20.59
2023-06-23T21:36:19.525Z,20.53
2023-06-23T21:38:59.116Z,20.53
2023-06-23T21:41:37.781Z,20.45
2023-06-23T21:44:16.892Z,20.38
2023-06-23T21:46:56.054Z,20.29
2023-06-23T21:49:35.170Z,20.27
2023-06-23T21:52:14.943Z,20.37
2023-06-23T21:54:54.136Z,20.33
2023-06-23T21:57:32.310Z,20.34
2023-06-23T22:00:10.659Z,20.33
2023-06-23T22:02:49.559Z,20.40
2023-06-23T22:05:28.593Z,20.41
2023-06-23T22:07:59.461Z,20.36
2023-06-23T22:10:31.812Z,20.30
2023-06-23T22:13:04.181Z,20.31
2023-06-23T22:15:42.915Z,20.29
2023-06-23T22:18:41.539Z,20.31
2023-06-23T22:21:25.633Z,20.30
2023-06-23T22:24:04.282Z,20.25
2023-06-23T22:26:43.360Z,20.20
2023-06-23T22:29:22.475Z,20.21
2023-06-23T22:32:02.264Z,20.22
2023-06-23T22:34:42.898Z,20.23
2023-06-23T22:37:19.577Z,20.20
2023-06-23T22:39:58.200Z,20.18
2023-06-23T22:42:37.269Z,20.17
2023-06-23T22:45:16.385Z,20.17
2023-06-23T22:47:55.334Z,20.15
2023-06-23T22:50:34.321Z,20.18
2023-06-23T22:53:15.677Z,20.19
2023-06-23T22:55:54.487Z,20.08
2023-06-23T22:58:33.197Z,20.00
2023-06-23T23:01:13.513Z,19.97
2023-06-23T23:03:52.423Z,19.93
2023-06-23T23:06:31.118Z,19.97
2023-06-23T23:09:12.099Z,19.97
2023-06-23T23:11:51.383Z,19.97
2023-06-23T23:14:30.534Z,19.94
2023-06-23T23:17:12.539Z,19.97
2023-06-23T23:19:51.305Z,20.03
2023-06-23T23:22:30.825Z,20.06
2023-06-23T23:25:11.732Z,20.05
2023-06-23T23:27:54.257Z,19.98
2023-06-23T23:30:35.440Z,19.89
2023-06-23T23:33:15.267Z,19.81
2023-06-23T23:35:54.546Z,19.78
2023-06-23T23:38:33.957Z,19.78
2023-06-23T23:41:13.849Z,19.76
2023-06-23T23:43:54.556Z,19.78
2023-06-23T23:46:33.622Z,19.80
2023-06-23T23:49:15.398Z,19.78
2023-06-23T23:51:55.080Z,19.84
2023-06-23T23:54:33.626Z,19.88
2023-06-23T23:57:15.409Z,19.99
2023-06-23T23:59:54.803Z,19.96
